Chandler Field
KAXN : now visible

Airfield :











YOU CAN JOIN US ON...

 
LOGIN :

Register | Disclaimer

   EN    FR    IT 

 









Legend :    VFR   Marginal VFR   IFR   Intensive IFR   Very Intensive IFR
Visi :
Ceiling :
>= 8 km
>= 3000ft
5 to 8 km
1000 to 3000 ft
1500m to 5 km
500 to 1000 ft
800 to 1500m
200 to 500 ft
< 800m
< 200 ft
Symbols :   Thunderstorms  Fog  Heavy snow  Heavy precipitations  Wind > 20 kt






- Airport Elevation : 1425 ft


KAXN - Chandler Field

CURRENT METAR :
  • 120453Z AUTO 29007KT 10SM CLR M16/M18 A3057 RMK AO2 SLP391 T11561183

EXPIRED METARs :
  • 120353Z AUTO 29008KT 10SM CLR M15/M18 A3058 RMK AO2 SLP394 T11501178
  • 120253Z AUTO 29008KT 10SM CLR M15/M18 A3058 RMK AO2 SLP395 T11501178 51004

TAF KAXN
Valid from the 12 at 06:00 until the 13 at 06:00 UTC


120520Z 1206/1306 29005KT P6SM SKC
FM121000 22006KT P6SM SKC
FM121500 18012KT P6SM SCT200
FM121900 17016G24KT P6SM BKN200
FM122300 17016G24KT P6SM OVC120



MET'MAP, your aeronautical weather chart ! - Copyright ORBIFLY December 2007 - Disclaimer

ORBIFLY MET'MAP TEAM :

Programming & Development : Alexandra Zaïnal
Concept & Development : Baudouin d'Aumeries
Co-Development & Prog : Marc-Olivier Méhu
Technical & hardware support : Manuel Goepfert

Contact : metmap@orbifly.com




SOURCES & CREDITS :

   NOAA       Earth
Advisory